createdAt,value
2018-07-04T00:00:06.355Z,25.13
2018-07-04T00:02:46.640Z,18.47
2018-07-04T00:05:26.919Z,20.03
2018-07-04T00:08:07.484Z,23.63
2018-07-04T00:10:48.004Z,19.83
2018-07-04T00:13:28.198Z,17.27
2018-07-04T00:16:08.707Z,25.70
2018-07-04T00:18:49.226Z,26.47
2018-07-04T00:21:29.415Z,21.03
2018-07-04T00:24:09.797Z,19.57
2018-07-04T00:26:50.101Z,18.33
2018-07-04T00:29:30.569Z,26.83
2018-07-04T00:32:11.028Z,19.57
2018-07-04T00:34:51.544Z,19.70
2018-07-04T00:37:31.543Z,24.47
2018-07-04T00:40:12.102Z,18.90
2018-07-04T00:42:52.555Z,21.07
2018-07-04T00:45:32.928Z,17.60
2018-07-04T00:48:13.184Z,18.73
2018-07-04T00:50:53.851Z,27.63
2018-07-04T00:53:34.432Z,19.80
2018-07-04T00:56:14.870Z,17.13
2018-07-04T00:58:55.134Z,20.10
2018-07-04T01:01:35.763Z,20.97
2018-07-04T01:04:15.852Z,19.87
2018-07-04T01:06:56.410Z,23.53
2018-07-04T01:09:36.668Z,20.50
2018-07-04T01:12:17.058Z,17.90
2018-07-04T01:14:57.367Z,20.57
2018-07-04T01:17:37.850Z,19.87
2018-07-04T01:20:18.109Z,15.90
2018-07-04T01:22:58.779Z,17.53
2018-07-04T01:25:38.950Z,23.20
2018-07-04T01:28:19.517Z,19.90
2018-07-04T01:30:59.647Z,22.33
2018-07-04T01:33:40.105Z,17.77
2018-07-04T01:36:20.361Z,20.30
2018-07-04T01:39:01.053Z,22.50
2018-07-04T01:41:41.309Z,20.03
2018-07-04T01:44:22.361Z,15.50
2018-07-04T01:47:02.840Z,13.17
2018-07-04T01:49:43.434Z,13.40
2018-07-04T01:52:23.645Z,19.20
2018-07-04T01:55:03.877Z,19.27
2018-07-04T01:57:44.234Z,19.13
2018-07-04T02:00:25.018Z,16.93
2018-07-04T02:03:05.187Z,17.30
2018-07-04T02:05:45.677Z,24.17
2018-07-04T02:08:26.001Z,19.73
2018-07-04T02:11:06.393Z,15.40
2018-07-04T02:13:46.838Z,17.57
2018-07-04T02:16:27.356Z,17.10
2018-07-04T02:19:07.490Z,19.53
2018-07-04T02:21:48.302Z,15.23
2018-07-04T02:24:28.557Z,19.80
2018-07-04T02:27:09.030Z,20.13
2018-07-04T02:29:49.390Z,21.83
2018-07-04T02:32:29.791Z,21.03
2018-07-04T02:35:10.414Z,16.90
2018-07-04T02:37:51.184Z,15.97
2018-07-04T02:40:31.362Z,15.40
2018-07-04T02:43:11.732Z,12.90
2018-07-04T02:45:52.434Z,19.33
2018-07-04T02:48:32.722Z,18.60
2018-07-04T02:51:12.979Z,19.43
2018-07-04T02:53:53.764Z,17.80
2018-07-04T02:56:34.109Z,17.20
2018-07-04T02:59:14.604Z,14.63
2018-07-04T03:01:54.825Z,17.07
2018-07-04T03:04:35.294Z,22.23
2018-07-04T03:07:15.580Z,19.23
2018-07-04T03:09:56.011Z,17.17
2018-07-04T03:12:36.263Z,17.57
2018-07-04T03:15:17.004Z,20.67
2018-07-04T03:17:57.272Z,17.80
2018-07-04T03:20:37.969Z,16.83
2018-07-04T03:23:18.322Z,17.77
2018-07-04T03:25:59.011Z,17.30
2018-07-04T03:28:39.346Z,16.43
2018-07-04T03:31:19.808Z,17.40
2018-07-04T03:34:00.056Z,20.77
2018-07-04T03:36:40.505Z,20.57
2018-07-04T03:39:20.881Z,22.03
2018-07-04T03:42:01.548Z,19.40
2018-07-04T03:44:41.701Z,18.27
2018-07-04T03:47:22.545Z,18.63
2018-07-04T03:50:02.726Z,19.60
2018-07-04T03:52:43.088Z,17.80
2018-07-04T03:55:23.323Z,15.87
2018-07-04T03:58:03.707Z,20.23
2018-07-04T04:00:43.802Z,18.40
2018-07-04T04:03:24.240Z,20.70
2018-07-04T04:06:04.501Z,23.30
2018-07-04T04:08:45.140Z,22.10
2018-07-04T04:11:25.293Z,16.37
2018-07-04T04:14:05.659Z,24.73
2018-07-04T04:16:46.024Z,21.53
2018-07-04T04:19:32.492Z,19.90
2018-07-04T04:22:13.387Z,19.30
2018-07-04T04:24:53.564Z,21.73
2018-07-04T04:27:33.727Z,19.67
2018-07-04T04:30:14.064Z,18.67
2018-07-04T04:32:54.416Z,21.67
2018-07-04T04:35:34.897Z,22.47
2018-07-04T04:38:15.030Z,27.07
2018-07-04T04:40:55.525Z,21.90
2018-07-04T04:43:35.565Z,21.53
2018-07-04T04:46:15.936Z,24.80
2018-07-04T04:48:56.670Z,23.17
2018-07-04T04:51:37.301Z,24.63
2018-07-04T04:54:17.595Z,23.33
2018-07-04T04:56:57.962Z,26.93
2018-07-04T04:59:38.132Z,27.23
2018-07-04T05:02:18.521Z,22.53
2018-07-04T05:04:58.702Z,29.20
2018-07-04T05:07:39.033Z,24.27
2018-07-04T05:10:19.281Z,26.27
2018-07-04T05:12:59.728Z,24.50
2018-07-04T05:15:39.809Z,21.87
2018-07-04T05:18:20.336Z,22.13
2018-07-04T05:21:00.685Z,22.77
2018-07-04T05:23:41.242Z,25.03
2018-07-04T05:26:21.681Z,22.87
2018-07-04T05:29:02.098Z,27.77
2018-07-04T05:31:42.425Z,27.87
2018-07-04T05:34:22.985Z,24.90
2018-07-04T05:37:03.243Z,22.00
2018-07-04T05:39:43.790Z,26.27
2018-07-04T05:42:23.909Z,21.77
2018-07-04T05:45:04.281Z,27.23
2018-07-04T05:47:44.393Z,22.57
2018-07-04T05:50:25.072Z,22.27
2018-07-04T05:53:05.065Z,22.77
2018-07-04T05:55:45.658Z,20.70
2018-07-04T05:58:25.893Z,19.73
2018-07-04T06:01:06.305Z,17.43
2018-07-04T06:03:46.528Z,17.07
2018-07-04T06:06:27.023Z,20.37
2018-07-04T06:09:07.497Z,20.17
2018-07-04T06:11:48.099Z,17.13
2018-07-04T06:14:28.270Z,20.80
2018-07-04T06:17:08.782Z,20.70
2018-07-04T06:19:48.932Z,20.07
2018-07-04T06:22:29.373Z,19.30
2018-07-04T06:25:09.810Z,17.80
2018-07-04T06:27:50.405Z,17.47
2018-07-04T06:30:30.553Z,17.33
2018-07-04T06:33:11.012Z,16.60
2018-07-04T06:35:51.245Z,15.33
2018-07-04T06:38:19.337Z,16.77
2018-07-04T06:40:47.183Z,15.40
2018-07-04T06:43:15.051Z,15.50
2018-07-04T06:45:43.279Z,18.07
2018-07-04T06:48:11.296Z,15.67
2018-07-04T06:50:39.479Z,19.53
2018-07-04T06:53:07.493Z,11.83
2018-07-04T06:55:35.412Z,13.77
2018-07-04T06:58:03.286Z,17.13
2018-07-04T07:00:31.376Z,17.67
2018-07-04T07:03:11.422Z,17.53
2018-07-04T07:05:52.068Z,15.43
2018-07-04T07:08:32.652Z,14.93
2018-07-04T07:11:13.401Z,14.90
2018-07-04T07:13:53.962Z,15.20
2018-07-04T07:16:34.320Z,14.53
2018-07-04T07:19:14.984Z,12.83
2018-07-04T07:21:55.194Z,14.37
2018-07-04T07:24:35.606Z,17.03
2018-07-04T07:27:15.965Z,15.67
2018-07-04T07:29:56.528Z,16.80
2018-07-04T07:32:36.680Z,24.83
2018-07-04T07:35:17.346Z,22.03
2018-07-04T07:37:57.505Z,15.87
2018-07-04T07:40:38.065Z,14.57
2018-07-04T07:43:18.428Z,17.80
2018-07-04T07:45:58.884Z,13.00
2018-07-04T07:48:39.367Z,13.27
2018-07-04T07:51:20.045Z,17.57
2018-07-04T07:54:00.426Z,15.87
2018-07-04T07:56:40.983Z,17.53
2018-07-04T07:59:21.296Z,16.13
2018-07-04T08:02:01.861Z,12.00
2018-07-04T08:04:42.019Z,17.93
2018-07-04T08:07:22.681Z,14.17
2018-07-04T08:10:03.048Z,12.57
2018-07-04T08:12:43.581Z,12.67
2018-07-04T08:15:23.783Z,10.77
2018-07-04T08:18:04.300Z,15.57
2018-07-04T08:20:44.512Z,12.20
2018-07-04T08:23:25.016Z,12.63
2018-07-04T08:26:05.173Z,13.87
2018-07-04T08:28:45.661Z,10.30
2018-07-04T08:31:25.917Z,13.87
2018-07-04T08:34:06.582Z,12.97
2018-07-04T08:36:46.937Z,9.87
2018-07-04T08:39:27.338Z,9.33
2018-07-04T08:42:07.554Z,11.63
2018-07-04T08:44:48.168Z,12.97
2018-07-04T08:47:28.482Z,8.90
2018-07-04T08:50:08.839Z,10.07
2018-07-04T08:52:50.056Z,5.83
2018-07-04T08:55:30.477Z,6.47
2018-07-04T08:58:11.146Z,7.57
2018-07-04T09:00:51.739Z,6.17
2018-07-04T09:03:32.374Z,8.67
2018-07-04T09:06:12.529Z,7.57
2018-07-04T09:08:53.300Z,4.17
2018-07-04T09:11:33.430Z,5.07
2018-07-04T09:14:13.811Z,5.00
2018-07-04T09:16:54.512Z,2.63
2018-07-04T09:19:34.839Z,6.03
2018-07-04T09:22:15.324Z,6.30
2018-07-04T09:24:55.763Z,6.30
2018-07-04T09:27:35.888Z,6.83
2018-07-04T09:30:16.279Z,4.90
2018-07-04T09:32:56.874Z,7.50
2018-07-04T09:35:37.463Z,8.30
2018-07-04T09:38:17.812Z,8.97
2018-07-04T09:40:58.427Z,6.60
2018-07-04T09:43:38.613Z,6.53
2018-07-04T09:46:18.976Z,6.97
2018-07-04T09:48:59.231Z,6.20
2018-07-04T09:51:39.584Z,8.20
2018-07-04T09:54:20.057Z,7.90
2018-07-04T09:57:00.842Z,8.07
2018-07-04T09:59:41.250Z,7.43
2018-07-04T10:02:21.613Z,6.97
2018-07-04T10:05:01.907Z,7.87
2018-07-04T10:07:42.225Z,5.93
2018-07-04T10:10:22.688Z,8.60
2018-07-04T10:13:03.152Z,6.57
2018-07-04T10:15:43.275Z,10.30
2018-07-04T10:18:23.849Z,9.17
2018-07-04T10:21:04.083Z,9.00
2018-07-04T10:23:44.506Z,7.97
2018-07-04T10:26:25.095Z,11.27
2018-07-04T10:29:05.639Z,7.53
2018-07-04T10:31:45.922Z,6.50
2018-07-04T10:34:26.675Z,6.57
2018-07-04T10:37:06.793Z,6.23
2018-07-04T10:39:47.297Z,8.53
2018-07-04T10:42:27.643Z,1.83
2018-07-04T10:45:08.009Z,1.73
2018-07-04T10:47:48.126Z,1.30
2018-07-04T10:50:28.934Z,1.13
2018-07-04T10:53:09.050Z,2.70
2018-07-04T10:55:49.460Z,0.97
2018-07-04T10:58:29.641Z,1.27
2018-07-04T11:01:10.230Z,2.07
2018-07-04T11:03:50.385Z,2.73
2018-07-04T11:06:31.049Z,2.10
2018-07-04T11:09:11.133Z,1.03
2018-07-04T11:11:51.695Z,2.53
2018-07-04T11:14:31.923Z,1.00
2018-07-04T11:17:12.471Z,3.30
2018-07-04T11:19:52.711Z,2.57
2018-07-04T11:22:33.096Z,1.97
2018-07-04T11:25:13.350Z,2.37
2018-07-04T11:27:53.718Z,2.73
2018-07-04T11:30:33.890Z,2.30
2018-07-04T11:33:14.338Z,4.87
2018-07-04T11:35:54.646Z,4.23
2018-07-04T11:38:35.189Z,1.23
2018-07-04T11:41:15.519Z,1.63
2018-07-04T11:43:56.168Z,1.93
2018-07-04T11:46:23.874Z,1.50
2018-07-04T11:48:51.718Z,1.20
2018-07-04T11:51:19.709Z,1.80
2018-07-04T11:53:47.650Z,2.37
2018-07-04T11:56:15.723Z,5.87
2018-07-04T11:58:43.788Z,3.87
2018-07-04T12:01:11.962Z,1.83
2018-07-04T12:03:52.321Z,3.13
2018-07-04T12:06:32.800Z,3.60
2018-07-04T12:09:00.753Z,2.30
2018-07-04T12:11:28.558Z,3.17
2018-07-04T12:13:56.590Z,1.27
2018-07-04T12:16:24.865Z,3.30
2018-07-04T12:18:52.765Z,3.03
2018-07-04T12:21:20.599Z,3.13
2018-07-04T12:23:48.899Z,3.37
2018-07-04T12:26:17.695Z,2.03
2018-07-04T12:28:45.526Z,3.10
2018-07-04T12:31:13.650Z,3.10
2018-07-04T12:33:41.611Z,4.17
2018-07-04T12:36:09.363Z,4.50
2018-07-04T12:38:37.433Z,3.13
2018-07-04T12:41:05.254Z,6.17
2018-07-04T12:43:33.297Z,4.53
2018-07-04T12:46:01.472Z,4.70
2018-07-04T12:48:29.406Z,3.63
2018-07-04T12:50:57.270Z,3.83
2018-07-04T12:53:25.037Z,6.40
2018-07-04T12:56:05.586Z,5.60
2018-07-04T12:58:46.023Z,3.67
2018-07-04T13:01:26.917Z,3.83
2018-07-04T13:04:07.093Z,4.97
2018-07-04T13:06:47.271Z,3.53
2018-07-04T13:09:27.712Z,4.17
2018-07-04T13:12:07.774Z,3.27
2018-07-04T13:14:48.328Z,4.27
2018-07-04T13:17:28.552Z,4.20
2018-07-04T13:20:09.011Z,4.87
2018-07-04T13:25:59.949Z,3.87
2018-07-04T13:28:40.095Z,2.60
2018-07-04T13:31:20.482Z,4.03
2018-07-04T13:34:00.685Z,2.60
2018-07-04T13:36:41.073Z,3.17
2018-07-04T13:39:21.273Z,5.40
2018-07-04T13:42:01.833Z,8.97
2018-07-04T13:44:42.026Z,3.20
2018-07-04T13:47:22.530Z,2.70
2018-07-04T13:50:02.764Z,6.77
2018-07-04T13:52:43.329Z,4.73
2018-07-04T13:55:23.485Z,2.90
2018-07-04T13:58:04.660Z,4.20
2018-07-04T14:00:45.326Z,2.97
2018-07-04T14:03:25.858Z,3.10
2018-07-04T14:06:06.146Z,3.13
2018-07-04T14:08:46.813Z,2.83
2018-07-04T14:11:27.480Z,3.83
2018-07-04T14:14:08.045Z,3.10
2018-07-04T14:16:48.246Z,6.33
2018-07-04T14:19:28.768Z,3.00
2018-07-04T14:22:09.005Z,2.53
2018-07-04T14:24:49.590Z,2.40
2018-07-04T14:27:29.994Z,4.57
2018-07-04T14:30:10.712Z,2.27
2018-07-04T14:32:51.279Z,4.97
2018-07-04T14:35:31.700Z,6.10
2018-07-04T14:38:12.100Z,2.30
2018-07-04T14:40:52.869Z,4.83
2018-07-04T14:43:33.228Z,2.33
2018-07-04T14:46:13.690Z,4.57
2018-07-04T14:48:53.950Z,3.73
2018-07-04T14:51:34.304Z,3.53
2018-07-04T14:54:14.559Z,3.30
2018-07-04T14:56:55.228Z,3.47
2018-07-04T14:59:35.468Z,3.20
2018-07-04T15:02:16.151Z,4.80
2018-07-04T15:04:56.508Z,4.00
2018-07-04T15:07:36.927Z,4.83
2018-07-04T15:10:17.227Z,5.10
2018-07-04T15:12:57.631Z,8.27
2018-07-04T15:15:37.877Z,5.03
2018-07-04T15:18:18.334Z,9.43
2018-07-04T15:20:58.510Z,5.97
2018-07-04T15:23:39.153Z,2.97
2018-07-04T15:26:19.582Z,6.90
2018-07-04T15:29:00.349Z,8.93
2018-07-04T15:31:40.614Z,3.70
2018-07-04T15:34:21.927Z,6.63
2018-07-04T15:37:02.365Z,3.93
2018-07-04T15:39:43.514Z,5.10
2018-07-04T15:42:24.404Z,3.70
2018-07-04T15:45:05.178Z,3.57
2018-07-04T15:47:45.535Z,5.90
2018-07-04T15:50:25.929Z,6.73
2018-07-04T15:53:06.563Z,4.57
2018-07-04T15:55:47.273Z,7.90
2018-07-04T15:58:27.500Z,7.60
2018-07-04T16:01:07.950Z,5.27
2018-07-04T16:03:48.660Z,5.00
2018-07-04T16:06:29.325Z,5.27
2018-07-04T16:09:09.536Z,8.30
2018-07-04T16:11:50.060Z,8.67
2018-07-04T16:14:30.568Z,8.87
2018-07-04T16:17:11.176Z,6.63
2018-07-04T16:19:51.957Z,5.17
2018-07-04T16:22:32.438Z,5.70
2018-07-04T16:25:12.675Z,6.97
2018-07-04T16:27:53.185Z,4.30
2018-07-04T16:30:33.480Z,5.40
2018-07-04T16:33:14.105Z,5.03
2018-07-04T16:35:54.572Z,4.93
2018-07-04T16:38:35.334Z,7.37
2018-07-04T16:41:15.696Z,5.57
2018-07-04T16:43:56.202Z,8.43
2018-07-04T16:46:36.491Z,6.07
2018-07-04T16:49:17.081Z,6.53
2018-07-04T16:51:57.641Z,6.77
2018-07-04T16:54:37.839Z,4.93
2018-07-04T16:57:18.055Z,6.07
2018-07-04T16:59:58.517Z,4.50
2018-07-04T17:02:38.925Z,6.63
2018-07-04T17:05:19.924Z,4.67
2018-07-04T17:08:00.715Z,6.07
2018-07-04T17:10:40.875Z,3.10
2018-07-04T17:13:21.465Z,5.10
2018-07-04T17:16:01.596Z,5.33
2018-07-04T17:18:42.082Z,5.20
2018-07-04T17:21:22.426Z,3.13
2018-07-04T17:24:02.943Z,5.13
2018-07-04T17:26:43.288Z,4.27
2018-07-04T17:29:23.697Z,4.13
2018-07-04T17:32:03.894Z,5.83
2018-07-04T17:34:44.495Z,4.53
2018-07-04T17:37:24.670Z,9.03
2018-07-04T17:40:05.234Z,6.00
2018-07-04T17:42:45.311Z,3.10
2018-07-04T17:45:25.850Z,5.03
2018-07-04T17:48:06.417Z,3.67
2018-07-04T17:50:47.280Z,4.97
2018-07-04T17:53:27.578Z,4.07
2018-07-04T17:56:08.229Z,5.80
2018-07-04T17:58:48.245Z,5.03
2018-07-04T18:01:28.791Z,5.53
2018-07-04T18:04:09.026Z,3.20
2018-07-04T18:06:49.713Z,6.33
2018-07-04T18:09:29.821Z,4.10
2018-07-04T18:12:10.562Z,6.73
2018-07-04T18:14:50.720Z,6.37
2018-07-04T18:17:30.910Z,6.37
2018-07-04T18:20:11.500Z,6.80
2018-07-04T18:22:51.904Z,4.00
2018-07-04T18:25:32.056Z,10.57
2018-07-04T18:28:12.431Z,5.47
2018-07-04T18:30:52.515Z,6.63
2018-07-04T18:33:32.837Z,10.47
2018-07-04T18:36:12.878Z,4.03
2018-07-04T18:38:53.561Z,3.63
2018-07-04T18:41:33.456Z,7.27
2018-07-04T18:44:13.795Z,7.57
2018-07-04T18:46:53.999Z,4.57
2018-07-04T18:49:34.207Z,6.10
2018-07-04T18:52:14.420Z,4.87
2018-07-04T18:54:54.778Z,8.37
2018-07-04T18:57:34.938Z,5.37
2018-07-04T19:00:15.109Z,7.50
2018-07-04T19:02:55.450Z,6.77
2018-07-04T19:05:35.977Z,8.40
2018-07-04T19:08:16.504Z,6.20
2018-07-04T19:10:56.670Z,10.40
2018-07-04T19:13:36.989Z,6.07
2018-07-04T19:16:17.246Z,4.33
2018-07-04T19:18:57.634Z,6.27
2018-07-04T19:21:37.804Z,7.57
2018-07-04T19:24:18.220Z,7.17
2018-07-04T19:26:58.370Z,12.77
2018-07-04T19:29:38.684Z,8.63
2018-07-04T19:32:18.857Z,6.93
2018-07-04T19:34:59.388Z,8.33
2018-07-04T19:37:39.461Z,9.50
2018-07-04T19:40:19.596Z,7.60
2018-07-04T19:42:59.709Z,9.27
2018-07-04T19:45:40.276Z,7.40
2018-07-04T19:48:20.360Z,7.80
2018-07-04T19:51:00.784Z,7.30
2018-07-04T19:53:40.839Z,6.90
2018-07-04T19:56:21.029Z,8.50
2018-07-04T19:59:01.246Z,8.20
2018-07-04T20:01:41.655Z,9.07
2018-07-04T20:04:21.602Z,8.27
2018-07-04T20:07:02.085Z,7.40
2018-07-04T20:09:42.480Z,9.20
2018-07-04T20:12:22.742Z,10.53
2018-07-04T20:15:03.208Z,9.27
2018-07-04T20:17:43.565Z,7.93
2018-07-04T20:20:24.019Z,8.43
2018-07-04T20:23:04.528Z,13.50
2018-07-04T20:25:44.850Z,10.53
2018-07-04T20:28:25.149Z,9.67
2018-07-04T20:31:05.259Z,8.93
2018-07-04T20:33:46.022Z,8.07
2018-07-04T20:36:26.696Z,7.97
2018-07-04T20:39:07.200Z,9.77
2018-07-04T20:41:47.771Z,7.83
2018-07-04T20:44:28.540Z,8.40
2018-07-04T20:47:08.971Z,10.33
2018-07-04T20:49:49.685Z,10.63
2018-07-04T20:52:30.009Z,11.70
2018-07-04T20:55:10.781Z,8.07
2018-07-04T20:57:50.946Z,9.40
2018-07-04T21:00:31.534Z,8.87
2018-07-04T21:03:15.297Z,9.30
2018-07-04T21:05:55.900Z,8.37
2018-07-04T21:08:36.077Z,10.07
2018-07-04T21:11:18.729Z,11.23
2018-07-04T21:14:00.936Z,9.13
2018-07-04T21:16:41.852Z,13.33
2018-07-04T21:19:21.988Z,8.67
2018-07-04T21:22:02.461Z,10.00
2018-07-04T21:24:42.784Z,7.53
2018-07-04T21:27:23.046Z,8.17
2018-07-04T21:30:03.500Z,11.73
2018-07-04T21:32:43.984Z,10.67
2018-07-04T21:35:24.425Z,7.73
2018-07-04T21:38:05.099Z,8.33
2018-07-04T21:40:45.549Z,10.10
2018-07-04T21:43:25.948Z,10.73
2018-07-04T21:46:06.380Z,9.17
2018-07-04T21:48:46.858Z,6.90
2018-07-04T21:51:27.366Z,7.37
2018-07-04T21:54:08.892Z,9.23
2018-07-04T21:56:49.534Z,7.80
2018-07-04T21:59:29.923Z,9.30
2018-07-04T22:02:10.241Z,8.20
2018-07-04T22:04:50.661Z,7.97
2018-07-04T22:07:31.193Z,8.13
2018-07-04T22:10:11.919Z,14.10
2018-07-04T22:12:52.339Z,8.53
2018-07-04T22:15:32.990Z,10.03
2018-07-04T22:18:13.140Z,11.33
2018-07-04T22:20:53.588Z,9.53
2018-07-04T22:23:33.940Z,8.50
2018-07-04T22:26:14.274Z,9.07
2018-07-04T22:28:54.467Z,8.97
2018-07-04T22:31:35.400Z,8.20
2018-07-04T22:34:15.705Z,9.87
2018-07-04T22:36:56.399Z,9.00
2018-07-04T22:39:37.455Z,10.63
2018-07-04T22:42:17.861Z,17.50
2018-07-04T22:44:58.271Z,21.97
2018-07-04T22:47:38.771Z,17.53
2018-07-04T22:50:19.107Z,20.43
2018-07-04T22:52:59.359Z,11.80
2018-07-04T22:55:39.604Z,15.87
2018-07-04T22:58:20.166Z,12.63
2018-07-04T23:01:00.638Z,12.23
2018-07-04T23:03:41.400Z,13.67
2018-07-04T23:06:21.625Z,14.17
2018-07-04T23:09:02.086Z,9.37
2018-07-04T23:11:42.370Z,9.10
2018-07-04T23:14:23.261Z,12.67
2018-07-04T23:17:03.456Z,15.30
2018-07-04T23:19:43.764Z,15.93
2018-07-04T23:22:24.089Z,12.53
2018-07-04T23:25:04.374Z,14.00
2018-07-04T23:27:44.736Z,16.20
2018-07-04T23:30:25.198Z,12.00
2018-07-04T23:33:05.658Z,13.90
2018-07-04T23:35:46.076Z,12.93
2018-07-04T23:38:26.482Z,16.13
2018-07-04T23:41:06.942Z,12.13
2018-07-04T23:43:47.439Z,11.60
2018-07-04T23:46:27.887Z,10.13
2018-07-04T23:49:08.562Z,10.73
2018-07-04T23:51:48.709Z,11.17
2018-07-04T23:54:29.351Z,15.07
2018-07-04T23:57:09.753Z,15.07
2018-07-04T23:59:50.071Z,11.23
